createdAt,value
2023-03-21T00:00:02.616Z,92.40
2023-03-21T00:03:06.242Z,92.50
2023-03-21T00:06:12.171Z,92.60
2023-03-21T00:09:14.953Z,92.70
2023-03-21T00:12:21.014Z,92.60
2023-03-21T00:15:30.718Z,93.20
2023-03-21T00:18:42.088Z,93.70
2023-03-21T00:22:03.190Z,93.60
2023-03-21T00:25:10.552Z,93.90
2023-03-21T00:28:13.373Z,94.20
2023-03-21T00:31:17.921Z,94.10
2023-03-21T00:34:31.662Z,93.80
2023-03-21T00:37:43.832Z,94.20
2023-03-21T00:40:49.131Z,94.00
2023-03-21T00:43:55.424Z,94.30
2023-03-21T00:47:07.485Z,94.40
2023-03-21T00:50:12.793Z,94.40
2023-03-21T00:53:16.047Z,94.40
2023-03-21T00:56:18.828Z,94.30
2023-03-21T00:59:21.644Z,94.10
2023-03-21T01:02:26.744Z,94.90
2023-03-21T01:05:45.240Z,95.40
2023-03-21T01:08:53.593Z,95.00
2023-03-21T01:11:56.532Z,95.00
2023-03-21T01:14:59.305Z,94.90
2023-03-21T01:18:03.937Z,94.70
2023-03-21T01:21:10.245Z,94.50
2023-03-21T01:24:13.069Z,94.70
2023-03-21T01:27:15.975Z,94.50
2023-03-21T01:30:22.844Z,94.70
2023-03-21T01:33:28.216Z,94.60
2023-03-21T01:36:31.115Z,95.20
2023-03-21T01:39:35.286Z,95.30
2023-03-21T01:42:38.067Z,95.20
2023-03-21T01:46:27.316Z,95.30
2023-03-21T01:49:38.559Z,95.30
2023-03-21T01:52:41.735Z,94.90
2023-03-21T01:55:44.794Z,95.20
2023-03-21T01:58:48.559Z,95.00
2023-03-21T02:01:52.285Z,95.10
2023-03-21T02:04:58.128Z,94.90
2023-03-21T02:08:01.932Z,94.70
2023-03-21T02:11:05.055Z,94.90
2023-03-21T02:14:28.452Z,95.10
2023-03-21T02:17:40.052Z,95.10
2023-03-21T02:21:21.401Z,95.10
2023-03-21T02:25:04.287Z,94.90
2023-03-21T02:28:16.679Z,94.80
2023-03-21T02:31:32.277Z,94.90
2023-03-21T02:35:03.991Z,95.40
2023-03-21T02:38:13.079Z,95.30
2023-03-21T02:41:21.289Z,95.20
2023-03-21T02:44:30.976Z,95.30
2023-03-21T02:47:38.068Z,94.90
2023-03-21T02:50:46.325Z,94.90
2023-03-21T02:54:16.685Z,94.70
2023-03-21T02:57:18.782Z,95.30
2023-03-21T03:00:24.535Z,95.80
2023-03-21T03:03:34.412Z,95.50
2023-03-21T03:06:45.314Z,95.30
2023-03-21T03:10:16.601Z,95.50
2023-03-21T03:13:35.914Z,95.50
2023-03-21T03:16:45.506Z,95.40
2023-03-21T03:20:07.223Z,95.20
2023-03-21T03:23:26.513Z,95.10
2023-03-21T03:26:35.043Z,95.30
2023-03-21T03:29:41.737Z,95.50
2023-03-21T03:32:49.779Z,95.30
2023-03-21T03:36:05.124Z,95.40
2023-03-21T03:39:12.494Z,95.60
2023-03-21T03:42:28.149Z,95.90
2023-03-21T03:45:36.100Z,95.50
2023-03-21T03:48:46.560Z,96.00
2023-03-21T03:51:55.502Z,95.60
2023-03-21T03:54:59.263Z,95.40
2023-03-21T03:58:06.464Z,95.50
2023-03-21T04:01:14.233Z,95.40
2023-03-21T04:04:17.736Z,96.20
2023-03-21T04:07:21.420Z,96.40
2023-03-21T04:10:24.473Z,95.90
2023-03-21T04:13:28.671Z,96.30
2023-03-21T04:16:35.570Z,96.20
2023-03-21T04:19:38.764Z,96.30
2023-03-21T04:22:41.950Z,96.10
2023-03-21T04:25:55.958Z,96.20
2023-03-21T04:29:01.280Z,96.20
2023-03-21T04:32:04.108Z,96.40
2023-03-21T04:35:08.335Z,96.20
2023-03-21T04:38:11.133Z,96.70
2023-03-21T04:41:13.901Z,96.50
2023-03-21T04:44:19.042Z,96.50
2023-03-21T04:47:21.911Z,96.80
2023-03-21T04:50:24.776Z,96.70
2023-03-21T04:53:27.578Z,96.50
2023-03-21T04:56:32.392Z,96.80
2023-03-21T04:59:36.627Z,96.50
2023-03-21T05:02:39.717Z,96.70
2023-03-21T05:05:42.636Z,96.60
2023-03-21T05:08:45.607Z,96.50
2023-03-21T05:11:48.594Z,96.80
2023-03-21T05:14:52.933Z,96.40
2023-03-21T05:17:58.559Z,96.30
2023-03-21T05:21:01.399Z,96.10
2023-03-21T05:24:04.187Z,96.70
2023-03-21T05:27:07.001Z,96.50
2023-03-21T05:30:14.207Z,96.50
2023-03-21T05:33:16.981Z,96.60
2023-03-21T05:36:19.863Z,96.50
2023-03-21T05:39:22.754Z,96.40
2023-03-21T05:42:26.350Z,96.50
2023-03-21T05:45:30.737Z,96.70
2023-03-21T05:48:34.586Z,96.50
2023-03-21T05:51:37.372Z,96.20
2023-03-21T05:54:40.317Z,96.50
2023-03-21T05:57:43.093Z,96.60
2023-03-21T06:00:47.370Z,97.20
2023-03-21T06:03:50.254Z,97.00
2023-03-21T06:06:53.561Z,96.50
2023-03-21T06:09:56.412Z,96.30
2023-03-21T06:12:59.269Z,96.20
2023-03-21T06:16:03.545Z,96.20
2023-03-21T06:19:06.510Z,96.70
2023-03-21T06:22:09.591Z,96.80
2023-03-21T06:25:12.493Z,96.70
2023-03-21T06:28:15.501Z,96.40
2023-03-21T06:31:22.383Z,96.50
2023-03-21T06:34:25.261Z,96.60
2023-03-21T06:37:28.093Z,96.70
2023-03-21T06:40:30.872Z,96.50
2023-03-21T06:43:34.004Z,96.20
2023-03-21T06:46:38.204Z,96.30
2023-03-21T06:49:42.825Z,96.10
2023-03-21T06:52:45.618Z,96.00
2023-03-21T06:55:50.476Z,96.40
2023-03-21T06:58:53.304Z,96.10
2023-03-21T07:01:57.582Z,96.70
2023-03-21T07:05:00.392Z,96.10
2023-03-21T07:08:03.253Z,95.60
2023-03-21T07:11:06.953Z,96.10
2023-03-21T07:14:10.155Z,96.00
2023-03-21T07:17:14.324Z,95.50
2023-03-21T07:20:18.846Z,95.20
2023-03-21T07:23:23.893Z,94.70
2023-03-21T07:26:26.671Z,94.90
2023-03-21T07:29:29.464Z,94.90
2023-03-21T07:32:37.834Z,95.40
2023-03-21T07:35:41.057Z,94.70
2023-03-21T07:38:45.413Z,94.60
2023-03-21T07:41:48.204Z,94.40
2023-03-21T07:44:52.669Z,94.50
2023-03-21T07:47:56.844Z,94.50
2023-03-21T07:51:00.213Z,94.90
2023-03-21T07:54:02.991Z,94.80
2023-03-21T07:57:05.802Z,94.50
2023-03-21T08:00:10.805Z,94.90
2023-03-21T08:03:17.826Z,95.10
2023-03-21T08:06:20.987Z,94.10
2023-03-21T08:09:23.777Z,94.40
2023-03-21T08:12:26.557Z,93.90
2023-03-21T08:15:29.451Z,94.60
2023-03-21T08:18:33.558Z,94.40
2023-03-21T08:21:37.891Z,94.40
2023-03-21T08:24:40.898Z,93.40
2023-03-21T08:27:45.439Z,93.80
2023-03-21T08:30:48.927Z,93.30
2023-03-21T08:33:54.767Z,93.40
2023-03-21T08:36:57.566Z,93.60
2023-03-21T08:40:00.414Z,93.90
2023-03-21T08:43:03.860Z,93.10
2023-03-21T08:46:07.196Z,93.20
2023-03-21T08:49:12.480Z,93.60
2023-03-21T08:52:15.636Z,93.30
2023-03-21T08:55:19.501Z,93.30
2023-03-21T08:58:23.569Z,93.30
2023-03-21T09:01:26.989Z,93.20
2023-03-21T09:04:31.850Z,92.30
2023-03-21T09:07:36.254Z,92.60
2023-03-21T09:10:39.051Z,92.60
2023-03-21T09:13:41.875Z,92.50
2023-03-21T09:16:44.634Z,92.30
2023-03-21T09:19:49.212Z,93.00
2023-03-21T09:22:53.321Z,92.90
2023-03-21T09:25:56.412Z,91.40
2023-03-21T09:29:00.779Z,90.50
2023-03-21T09:32:06.723Z,90.70
2023-03-21T09:35:12.698Z,90.80
2023-03-21T09:38:15.821Z,89.90
2023-03-21T09:41:33.560Z,89.10
2023-03-21T09:44:50.113Z,89.30
2023-03-21T09:47:54.213Z,88.30
2023-03-21T09:50:58.677Z,89.60
2023-03-21T09:54:07.443Z,89.40
2023-03-21T09:57:21.651Z,90.00
2023-03-21T10:00:29.844Z,87.40
2023-03-21T10:03:35.563Z,86.20
2023-03-21T10:06:42.851Z,87.10
2023-03-21T10:09:46.774Z,86.10
2023-03-21T10:12:51.928Z,86.30
2023-03-21T10:15:58.623Z,85.10
2023-03-21T10:19:07.349Z,85.60
2023-03-21T10:22:11.846Z,86.30
2023-03-21T10:25:18.478Z,85.30
2023-03-21T10:28:24.641Z,84.50
2023-03-21T10:31:30.238Z,84.80
2023-03-21T10:34:36.767Z,87.10
2023-03-21T10:37:41.406Z,84.00
2023-03-21T10:40:44.330Z,84.00
2023-03-21T10:43:51.147Z,84.60
2023-03-21T10:46:56.328Z,85.10
2023-03-21T10:50:08.448Z,84.70
2023-03-21T10:53:20.735Z,81.10
2023-03-21T10:56:27.598Z,79.70
2023-03-21T10:59:39.284Z,80.70
2023-03-21T11:02:43.112Z,79.80
2023-03-21T11:05:46.479Z,78.00
2023-03-21T11:08:55.006Z,79.40
2023-03-21T11:12:04.104Z,78.40
2023-03-21T11:15:28.679Z,77.10
2023-03-21T11:18:33.207Z,77.20
2023-03-21T11:21:38.550Z,78.60
2023-03-21T11:24:44.967Z,74.50
2023-03-21T11:27:52.094Z,75.80
2023-03-21T11:30:57.403Z,76.20
2023-03-21T11:34:01.458Z,74.70
2023-03-21T11:37:04.624Z,73.00
2023-03-21T11:40:23.202Z,72.60
2023-03-21T11:43:31.968Z,73.40
2023-03-21T11:46:41.750Z,69.50
2023-03-21T11:49:44.512Z,71.60
2023-03-21T11:53:06.242Z,69.00
2023-03-21T11:56:23.326Z,66.90
2023-03-21T11:59:39.784Z,67.70
2023-03-21T12:03:04.020Z,65.00
2023-03-21T12:06:14.588Z,65.00
2023-03-21T12:09:35.618Z,62.50
2023-03-21T12:12:49.713Z,61.50
2023-03-21T12:15:59.720Z,61.90
2023-03-21T12:19:16.578Z,61.00
2023-03-21T12:22:29.709Z,59.10
2023-03-21T12:25:36.596Z,57.60
2023-03-21T12:28:51.990Z,57.70
2023-03-21T12:32:04.749Z,57.40
2023-03-21T12:35:26.489Z,57.80
2023-03-21T12:38:41.456Z,56.80
2023-03-21T12:41:46.732Z,57.40
2023-03-21T12:44:55.423Z,56.30
2023-03-21T12:48:06.729Z,57.30
2023-03-21T12:51:14.225Z,55.90
2023-03-21T12:54:25.933Z,56.20
2023-03-21T12:57:35.637Z,56.00
2023-03-21T13:00:44.760Z,55.70
2023-03-21T13:03:52.596Z,55.40
2023-03-21T13:06:57.345Z,57.00
2023-03-21T13:10:02.226Z,56.70
2023-03-21T13:13:19.617Z,55.10
2023-03-21T13:16:28.132Z,55.10
2023-03-21T13:19:38.097Z,55.10
2023-03-21T13:22:40.916Z,53.50
2023-03-21T13:25:46.891Z,53.30
2023-03-21T13:28:49.770Z,53.40
2023-03-21T13:31:57.174Z,51.90
2023-03-21T13:35:02.607Z,53.60
2023-03-21T13:38:12.961Z,54.90
2023-03-21T13:41:19.032Z,52.60
2023-03-21T13:44:26.462Z,51.60
2023-03-21T13:47:54.908Z,51.80
2023-03-21T13:51:02.160Z,52.00
2023-03-21T13:54:17.630Z,51.70
2023-03-21T13:57:39.013Z,51.80
2023-03-21T14:00:41.966Z,50.50
2023-03-21T14:03:47.265Z,48.30
2023-03-21T14:06:55.987Z,50.20
2023-03-21T14:10:02.133Z,50.40
2023-03-21T14:13:07.204Z,50.50
2023-03-21T14:16:14.672Z,49.00
2023-03-21T14:19:18.852Z,49.40
2023-03-21T14:22:21.958Z,49.50
2023-03-21T14:25:31.228Z,49.50
2023-03-21T14:28:36.140Z,50.90
2023-03-21T14:31:41.140Z,49.60
2023-03-21T14:34:46.357Z,49.40
2023-03-21T14:37:50.166Z,50.90
2023-03-21T14:40:57.178Z,51.90
2023-03-21T14:44:05.228Z,49.90
2023-03-21T14:47:09.797Z,51.10
2023-03-21T14:50:14.220Z,52.40
2023-03-21T14:53:20.856Z,52.30
2023-03-21T14:56:27.015Z,52.10
2023-03-21T14:59:34.690Z,51.90
2023-03-21T15:02:40.861Z,52.80
2023-03-21T15:05:46.255Z,52.80
2023-03-21T15:08:56.968Z,53.20
2023-03-21T15:12:00.171Z,53.50
2023-03-21T15:15:03.837Z,53.60
2023-03-21T15:18:09.521Z,53.90
2023-03-21T15:21:19.064Z,54.20
2023-03-21T15:24:26.936Z,54.40
2023-03-21T15:27:32.036Z,54.20
2023-03-21T15:30:36.053Z,54.00
2023-03-21T15:33:39.033Z,54.90
2023-03-21T15:36:48.388Z,54.60
2023-03-21T15:39:52.412Z,54.40
2023-03-21T15:43:06.440Z,54.20
2023-03-21T15:46:15.325Z,54.40
2023-03-21T15:49:25.277Z,55.40
2023-03-21T15:52:29.536Z,55.70
2023-03-21T15:55:40.426Z,54.60
2023-03-21T15:58:45.787Z,55.60
2023-03-21T16:01:49.752Z,54.40
2023-03-21T16:04:56.907Z,54.00
2023-03-21T16:08:06.866Z,54.60
2023-03-21T16:11:17.282Z,54.50
2023-03-21T16:14:20.808Z,54.50
2023-03-21T16:17:28.668Z,54.80
2023-03-21T16:20:35.095Z,55.70
2023-03-21T16:23:39.377Z,56.00
2023-03-21T16:26:45.748Z,56.30
2023-03-21T16:29:48.845Z,56.40
2023-03-21T16:32:52.140Z,57.10
2023-03-21T16:35:57.576Z,57.10
2023-03-21T16:39:02.176Z,57.30
2023-03-21T16:42:05.712Z,57.80
2023-03-21T16:45:09.991Z,57.70
2023-03-21T16:48:16.415Z,57.80
2023-03-21T16:54:26.033Z,58.60
2023-03-21T16:57:31.813Z,58.40
2023-03-21T17:00:34.760Z,58.40
2023-03-21T17:03:37.892Z,58.50
2023-03-21T17:06:45.685Z,58.60
2023-03-21T17:09:50.516Z,58.80
2023-03-21T17:12:53.491Z,58.90
2023-03-21T17:15:56.273Z,59.70
2023-03-21T17:19:00.284Z,59.80
2023-03-21T17:22:03.068Z,61.70
2023-03-21T17:25:07.471Z,61.60
2023-03-21T17:28:10.256Z,63.10
2023-03-21T17:31:14.713Z,62.40
2023-03-21T17:34:18.408Z,63.40
2023-03-21T17:37:21.992Z,63.60
2023-03-21T17:40:28.022Z,63.70
2023-03-21T17:43:31.006Z,65.20
2023-03-21T17:46:37.370Z,64.80
2023-03-21T17:49:40.345Z,65.20
2023-03-21T17:52:43.157Z,64.70
2023-03-21T17:55:47.264Z,65.00
2023-03-21T17:58:50.360Z,66.00
2023-03-21T18:01:53.217Z,65.80
2023-03-21T18:04:56.134Z,66.30
2023-03-21T18:08:14.136Z,66.90
2023-03-21T18:11:19.350Z,67.00
2023-03-21T18:14:27.858Z,66.90
2023-03-21T18:17:31.568Z,66.90
2023-03-21T18:20:51.075Z,66.90
2023-03-21T18:23:55.272Z,67.90
2023-03-21T18:26:59.367Z,68.70
2023-03-21T18:33:24.981Z,68.00
2023-03-21T18:36:29.024Z,68.70
2023-03-21T18:39:33.013Z,69.70
2023-03-21T18:42:37.602Z,69.30
2023-03-21T18:45:40.503Z,70.10
2023-03-21T18:48:43.389Z,70.00
2023-03-21T18:51:47.058Z,69.50
2023-03-21T18:54:50.346Z,70.90
2023-03-21T18:57:54.602Z,70.80
2023-03-21T19:00:58.334Z,70.90
2023-03-21T19:04:23.832Z,71.00
2023-03-21T19:07:24.839Z,70.70
2023-03-21T19:10:27.905Z,70.60
2023-03-21T19:13:32.160Z,71.30
2023-03-21T19:16:56.176Z,71.90
2023-03-21T19:19:58.460Z,72.50
2023-03-21T19:23:01.891Z,72.80
2023-03-21T19:26:05.443Z,73.20
2023-03-21T19:29:09.748Z,73.10
2023-03-21T19:32:13.115Z,72.70
2023-03-21T19:35:16.305Z,73.20
2023-03-21T19:38:19.721Z,73.80
2023-03-21T19:41:22.519Z,73.60
2023-03-21T19:44:26.686Z,73.90
2023-03-21T19:47:29.477Z,73.60
2023-03-21T19:50:55.351Z,74.20
2023-03-21T19:53:55.111Z,73.50
2023-03-21T19:56:58.216Z,73.90
2023-03-21T20:00:02.393Z,73.70
2023-03-21T20:03:08.584Z,73.80
2023-03-21T20:06:12.881Z,74.80
2023-03-21T20:12:38.658Z,75.10
2023-03-21T20:15:48.079Z,75.00
2023-03-21T20:18:52.461Z,75.80
2023-03-21T20:21:59.868Z,75.60
2023-03-21T20:25:08.624Z,75.90
2023-03-21T20:28:17.127Z,76.30
2023-03-21T20:31:27.131Z,76.10
2023-03-21T20:34:30.782Z,76.70
2023-03-21T20:37:34.121Z,76.90
2023-03-21T20:40:37.973Z,76.60
2023-03-21T20:47:06.327Z,77.00
2023-03-21T20:50:11.069Z,77.80
2023-03-21T20:53:13.924Z,77.90
2023-03-21T20:56:20.605Z,78.30
2023-03-21T20:59:27.722Z,78.70
2023-03-21T21:02:32.341Z,78.40
2023-03-21T21:05:38.122Z,79.00
2023-03-21T21:08:42.109Z,78.70
2023-03-21T21:15:11.071Z,79.40
2023-03-21T21:18:15.204Z,79.40
2023-03-21T21:21:18.081Z,79.40
2023-03-21T21:24:20.941Z,80.20
2023-03-21T21:27:23.743Z,80.00
2023-03-21T21:30:26.759Z,80.20
2023-03-21T21:33:34.282Z,80.60
2023-03-21T21:36:37.116Z,80.60
2023-03-21T21:39:40.069Z,80.90
2023-03-21T21:42:43.962Z,80.80
2023-03-21T21:45:47.880Z,81.80
2023-03-21T21:48:52.465Z,82.10
2023-03-21T21:51:56.218Z,82.30
2023-03-21T21:55:01.984Z,82.80
2023-03-21T21:58:05.584Z,82.00
2023-03-21T22:01:08.691Z,81.80
2023-03-21T22:04:14.516Z,82.00
2023-03-21T22:07:17.849Z,81.50
2023-03-21T22:10:21.747Z,82.20
2023-03-21T22:13:24.547Z,82.00
2023-03-21T22:16:27.690Z,82.00
2023-03-21T22:19:32.512Z,81.60
2023-03-21T22:22:36.246Z,81.40
2023-03-21T22:25:39.436Z,81.50
2023-03-21T22:28:43.364Z,81.40
2023-03-21T22:31:47.289Z,81.10
2023-03-21T22:34:51.484Z,81.30
2023-03-21T22:37:54.377Z,81.20
2023-03-21T22:40:57.964Z,81.00
2023-03-21T22:44:00.781Z,82.20
2023-03-21T22:47:05.202Z,81.40
2023-03-21T22:50:10.352Z,81.40
2023-03-21T22:53:13.341Z,81.40
2023-03-21T22:56:16.145Z,81.00
2023-03-21T22:59:19.048Z,81.20
2023-03-21T23:02:21.928Z,81.00
2023-03-21T23:05:26.502Z,81.40
2023-03-21T23:08:29.279Z,81.50
2023-03-21T23:11:32.127Z,81.50
2023-03-21T23:14:34.932Z,82.00
2023-03-21T23:17:37.998Z,81.90
2023-03-21T23:20:42.588Z,82.10
2023-03-21T23:23:50.129Z,81.90
2023-03-21T23:26:53.171Z,82.40
2023-03-21T23:29:56.872Z,82.50
2023-03-21T23:32:59.757Z,82.40
2023-03-21T23:36:04.005Z,82.60
2023-03-21T23:39:07.511Z,82.60
2023-03-21T23:42:10.359Z,82.70
2023-03-21T23:45:13.258Z,82.80
2023-03-21T23:48:16.187Z,82.80
2023-03-21T23:51:20.463Z,82.70
2023-03-21T23:54:23.338Z,82.90
2023-03-21T23:57:27.025Z,83.20
